createdAt,value
2022-11-21T00:01:28.613Z,14.73
2022-11-21T00:03:59.732Z,14.70
2022-11-21T00:06:28.568Z,14.00
2022-11-21T00:08:57.722Z,15.60
2022-11-21T00:11:25.153Z,14.63
2022-11-21T00:13:52.519Z,14.47
2022-11-21T00:16:19.935Z,13.20
2022-11-21T00:18:47.313Z,12.57
2022-11-21T00:21:16.929Z,13.30
2022-11-21T00:23:45.271Z,13.00
2022-11-21T00:26:14.125Z,12.87
2022-11-21T00:28:41.944Z,13.77
2022-11-21T00:31:09.307Z,11.87
2022-11-21T00:33:38.714Z,13.13
2022-11-21T00:36:08.382Z,11.87
2022-11-21T00:38:36.555Z,12.33
2022-11-21T00:41:04.557Z,13.27
2022-11-21T00:43:33.435Z,12.37
2022-11-21T00:46:02.838Z,12.77
2022-11-21T00:48:32.481Z,14.27
2022-11-21T00:51:05.389Z,12.20
2022-11-21T00:53:33.213Z,12.50
2022-11-21T00:56:01.123Z,11.33
2022-11-21T00:58:28.887Z,11.17
2022-11-21T01:01:22.771Z,10.87
2022-11-21T01:03:50.191Z,10.97
2022-11-21T01:06:17.611Z,10.40
2022-11-21T01:08:45.491Z,9.60
2022-11-21T01:11:16.096Z,10.73
2022-11-21T01:13:44.257Z,10.33
2022-11-21T01:16:21.510Z,9.20
2022-11-21T01:18:49.607Z,9.63
2022-11-21T01:21:20.846Z,9.50
2022-11-21T01:23:50.272Z,7.27
2022-11-21T01:26:23.482Z,6.63
2022-11-21T01:28:52.067Z,7.90
2022-11-21T01:31:22.646Z,7.33
2022-11-21T01:33:50.287Z,7.03
2022-11-21T01:36:23.540Z,7.57
2022-11-21T01:38:59.566Z,7.37
2022-11-21T01:41:38.366Z,7.17
2022-11-21T01:44:25.400Z,7.13
2022-11-21T01:46:53.751Z,9.30
2022-11-21T01:49:27.514Z,6.90
2022-11-21T01:52:30.367Z,7.10
2022-11-21T01:54:59.519Z,6.77
2022-11-21T01:57:32.357Z,6.10
2022-11-21T02:00:13.549Z,6.53
2022-11-21T02:02:48.405Z,5.53
2022-11-21T02:05:23.986Z,6.13
2022-11-21T02:07:55.274Z,6.00
2022-11-21T02:10:23.130Z,6.77
2022-11-21T02:12:52.994Z,6.40
2022-11-21T02:15:23.666Z,8.57
2022-11-21T02:17:51.023Z,7.27
2022-11-21T02:20:20.855Z,7.87
2022-11-21T02:22:54.194Z,8.23
2022-11-21T02:25:25.627Z,7.80
2022-11-21T02:27:58.697Z,7.43
2022-11-21T02:30:27.862Z,6.67
2022-11-21T02:32:55.640Z,6.30
2022-11-21T02:35:23.381Z,5.50
2022-11-21T02:38:19.714Z,6.53
2022-11-21T02:41:14.853Z,7.27
2022-11-21T02:43:48.023Z,5.63
2022-11-21T02:46:15.359Z,6.30
2022-11-21T02:48:43.267Z,6.77
2022-11-21T02:51:10.615Z,6.77
2022-11-21T02:53:37.979Z,7.00
2022-11-21T02:56:06.077Z,8.13
2022-11-21T02:58:33.802Z,8.47
2022-11-21T03:01:01.196Z,8.43
2022-11-21T03:03:28.591Z,9.93
2022-11-21T03:05:56.839Z,8.33
2022-11-21T03:08:24.292Z,9.97
2022-11-21T03:10:51.653Z,9.80
2022-11-21T03:13:22.296Z,9.07
2022-11-21T03:15:49.692Z,8.70
2022-11-21T03:18:17.454Z,8.97
2022-11-21T03:20:44.845Z,8.30
2022-11-21T03:23:12.195Z,7.20
2022-11-21T03:25:39.563Z,8.03
2022-11-21T03:28:07.190Z,7.43
2022-11-21T03:30:34.561Z,7.73
2022-11-21T03:33:01.973Z,7.40
2022-11-21T03:35:29.360Z,6.70
2022-11-21T03:37:56.785Z,6.60
2022-11-21T03:40:24.145Z,5.20
2022-11-21T03:42:51.513Z,5.87
2022-11-21T03:45:20.366Z,5.07
2022-11-21T03:47:47.791Z,6.20
2022-11-21T03:50:18.565Z,6.37
2022-11-21T03:52:45.940Z,6.87
2022-11-21T03:55:13.379Z,6.50
2022-11-21T03:57:41.116Z,6.43
2022-11-21T04:00:09.707Z,6.60
2022-11-21T04:02:37.297Z,6.53
2022-11-21T04:05:04.952Z,6.27
2022-11-21T04:07:32.351Z,6.30
2022-11-21T04:09:59.979Z,6.00
2022-11-21T04:12:27.321Z,5.90
2022-11-21T04:14:55.278Z,6.70
2022-11-21T04:17:22.784Z,7.27
2022-11-21T04:19:50.124Z,6.00
2022-11-21T04:22:17.510Z,6.43
2022-11-21T04:24:44.859Z,7.00
2022-11-21T04:27:13.070Z,5.83
2022-11-21T04:29:41.044Z,5.43
2022-11-21T04:32:08.604Z,5.10
2022-11-21T04:34:35.921Z,5.07
2022-11-21T04:37:06.352Z,4.67
2022-11-21T04:39:37.682Z,4.40
2022-11-21T04:42:05.069Z,4.87
2022-11-21T04:44:32.404Z,5.10
2022-11-21T04:47:05.153Z,6.20
2022-11-21T04:49:32.874Z,5.70
2022-11-21T04:52:00.244Z,5.60
2022-11-21T04:54:27.857Z,6.00
2022-11-21T04:56:55.479Z,4.73
2022-11-21T04:59:22.838Z,5.07
2022-11-21T05:01:50.613Z,4.90
2022-11-21T05:04:20.228Z,4.47
2022-11-21T05:06:47.574Z,4.70
2022-11-21T05:09:17.213Z,4.77
2022-11-21T05:12:05.529Z,5.70
2022-11-21T05:14:32.877Z,5.10
2022-11-21T05:17:00.177Z,5.53
2022-11-21T05:19:27.510Z,5.73
2022-11-21T05:21:55.146Z,5.80
2022-11-21T05:24:22.540Z,6.33
2022-11-21T05:26:50.061Z,5.70
2022-11-21T05:29:17.420Z,6.43
2022-11-21T05:31:45.757Z,5.63
2022-11-21T05:34:13.140Z,6.13
2022-11-21T05:36:40.575Z,5.63
2022-11-21T05:39:07.898Z,6.43
2022-11-21T05:41:35.252Z,6.33
2022-11-21T05:44:03.123Z,4.80
2022-11-21T05:46:31.004Z,5.73
2022-11-21T05:48:59.805Z,6.83
2022-11-21T05:51:28.222Z,6.73
2022-11-21T05:53:57.989Z,6.80
2022-11-21T05:56:28.351Z,6.97
2022-11-21T05:58:58.281Z,6.77
2022-11-21T06:01:44.757Z,8.90
2022-11-21T06:04:13.589Z,10.00
2022-11-21T06:06:41.693Z,15.17
2022-11-21T06:09:09.125Z,14.87
2022-11-21T06:11:36.451Z,14.60
2022-11-21T06:14:04.013Z,13.00
2022-11-21T06:16:31.363Z,15.10
2022-11-21T06:18:59.054Z,17.67
2022-11-21T06:21:29.109Z,17.27
2022-11-21T06:23:59.312Z,16.20
2022-11-21T06:26:28.634Z,17.30
2022-11-21T06:28:55.967Z,16.17
2022-11-21T06:31:27.802Z,13.03
2022-11-21T06:33:59.922Z,15.83
2022-11-21T06:36:30.164Z,15.23
2022-11-21T06:38:59.955Z,12.47
2022-11-21T06:41:30.914Z,13.07
2022-11-21T06:44:02.780Z,13.17
2022-11-21T06:46:31.003Z,13.63
2022-11-21T06:48:58.411Z,12.93
2022-11-21T06:51:26.145Z,10.00
2022-11-21T06:53:59.568Z,7.00
2022-11-21T06:56:29.256Z,5.40
2022-11-21T06:58:56.972Z,5.00
2022-11-21T07:01:25.326Z,5.13
2022-11-21T07:03:53.671Z,5.30
2022-11-21T07:06:21.952Z,5.70
2022-11-21T07:09:17.556Z,5.57
2022-11-21T07:11:41.403Z,6.80
2022-11-21T07:14:09.950Z,6.97
2022-11-21T07:16:39.011Z,7.70
2022-11-21T07:19:06.981Z,5.70
2022-11-21T07:21:34.703Z,5.93
2022-11-21T07:24:04.727Z,5.37
2022-11-21T07:26:33.229Z,5.00
2022-11-21T07:29:00.612Z,5.73
2022-11-21T07:31:28.261Z,5.33
2022-11-21T07:33:55.841Z,9.10
2022-11-21T07:36:23.247Z,6.43
2022-11-21T07:38:50.640Z,6.00
2022-11-21T07:41:18.024Z,5.63
2022-11-21T07:43:45.344Z,6.47
2022-11-21T07:46:12.682Z,5.30
2022-11-21T07:48:40.270Z,7.20
2022-11-21T07:51:07.617Z,5.90
2022-11-21T07:53:34.948Z,5.47
2022-11-21T07:56:02.938Z,6.53
2022-11-21T07:58:30.309Z,5.80
2022-11-21T08:00:58.627Z,6.03
2022-11-21T08:03:25.998Z,8.40
2022-11-21T08:05:53.303Z,8.37
2022-11-21T08:08:20.723Z,7.17
2022-11-21T08:10:48.146Z,7.93
2022-11-21T08:13:15.649Z,9.03
2022-11-21T08:15:43.015Z,6.97
2022-11-21T08:18:15.450Z,7.00
2022-11-21T08:20:43.054Z,7.73
2022-11-21T08:23:11.421Z,7.67
2022-11-21T08:25:41.477Z,6.63
2022-11-21T08:28:11.440Z,7.13
2022-11-21T08:30:40.054Z,6.23
2022-11-21T08:33:07.476Z,6.67
2022-11-21T08:35:38.716Z,6.97
2022-11-21T08:38:09.855Z,4.63
2022-11-21T08:40:37.894Z,5.07
2022-11-21T08:43:08.520Z,6.00
2022-11-21T08:45:38.508Z,5.97
2022-11-21T08:48:11.840Z,3.97
2022-11-21T08:50:40.648Z,4.17
2022-11-21T08:53:09.293Z,5.80
2022-11-21T08:55:40.086Z,5.10
2022-11-21T08:58:09.484Z,3.47
2022-11-21T09:00:40.392Z,3.97
2022-11-21T09:03:10.311Z,2.70
2022-11-21T09:05:38.089Z,2.50
2022-11-21T09:08:06.447Z,2.83
2022-11-21T09:10:37.159Z,3.30
2022-11-21T09:13:04.589Z,3.90
2022-11-21T09:15:50.314Z,3.00
2022-11-21T09:18:18.984Z,1.83
2022-11-21T09:20:46.392Z,2.03
2022-11-21T09:23:16.737Z,3.13
2022-11-21T09:25:45.535Z,2.53
2022-11-21T09:28:15.407Z,1.77
2022-11-21T09:30:44.040Z,2.33
2022-11-21T09:33:14.676Z,1.90
2022-11-21T09:35:45.152Z,3.43
2022-11-21T09:38:13.453Z,3.27
2022-11-21T09:40:45.081Z,4.13
2022-11-21T09:43:36.090Z,4.53
2022-11-21T09:46:21.770Z,4.77
2022-11-21T09:48:59.175Z,5.37
2022-11-21T09:51:30.889Z,4.23
2022-11-21T09:54:14.085Z,4.07
2022-11-21T09:56:43.743Z,2.10
2022-11-21T09:59:34.472Z,5.07
2022-11-21T10:02:05.054Z,2.07
2022-11-21T10:04:32.730Z,2.30
2022-11-21T10:07:06.174Z,3.40
2022-11-21T10:09:37.300Z,2.23
2022-11-21T10:12:37.090Z,2.20
2022-11-21T10:15:25.113Z,2.13
2022-11-21T10:18:01.284Z,3.33
2022-11-21T10:20:59.086Z,2.73
2022-11-21T10:23:49.069Z,2.43
2022-11-21T10:26:48.497Z,1.60
2022-11-21T10:29:40.145Z,2.63
2022-11-21T10:32:29.793Z,1.53
2022-11-21T10:35:01.691Z,2.73
2022-11-21T10:37:37.724Z,2.73
2022-11-21T10:40:22.958Z,1.67
2022-11-21T10:43:22.817Z,2.97
2022-11-21T10:45:51.795Z,3.43
2022-11-21T10:48:19.508Z,5.97
2022-11-21T10:51:06.708Z,2.20
2022-11-21T10:53:56.103Z,2.97
2022-11-21T10:56:27.174Z,4.73
2022-11-21T10:58:56.415Z,3.00
2022-11-21T11:01:28.361Z,2.67
2022-11-21T11:04:45.814Z,1.67
2022-11-21T11:07:27.640Z,4.50
2022-11-21T11:10:27.993Z,1.87
2022-11-21T11:16:15.463Z,2.03
2022-11-21T11:18:54.001Z,1.60
2022-11-21T11:21:27.684Z,2.70
2022-11-21T11:24:14.162Z,1.67
2022-11-21T11:26:53.766Z,2.10
2022-11-21T11:29:23.508Z,2.23
2022-11-21T11:32:21.201Z,3.73
2022-11-21T11:35:22.407Z,2.83
2022-11-21T11:38:04.139Z,1.93
2022-11-21T11:40:42.645Z,2.00
2022-11-21T11:44:33.413Z,2.33
2022-11-21T11:47:32.464Z,3.40
2022-11-21T11:50:15.666Z,1.63
2022-11-21T11:53:24.299Z,5.33
2022-11-21T11:56:16.621Z,1.70
2022-11-21T11:59:05.631Z,2.03
2022-11-21T12:02:11.844Z,3.10
2022-11-21T12:05:09.323Z,1.67
2022-11-21T12:08:39.697Z,1.83
2022-11-21T12:11:12.327Z,1.30
2022-11-21T12:13:41.268Z,1.10
2022-11-21T12:16:14.122Z,1.63
2022-11-21T12:18:56.497Z,1.97
2022-11-21T12:21:24.054Z,3.50
2022-11-21T12:23:53.930Z,1.93
2022-11-21T12:26:37.083Z,3.17
2022-11-21T12:29:42.519Z,1.90
2022-11-21T12:32:25.158Z,2.20
2022-11-21T12:35:29.995Z,5.20
2022-11-21T12:38:04.069Z,2.27
2022-11-21T12:41:00.501Z,3.50
2022-11-21T12:43:57.613Z,3.23
2022-11-21T12:46:53.508Z,2.23
2022-11-21T12:49:54.810Z,2.53
2022-11-21T12:53:05.422Z,3.00
2022-11-21T12:55:40.111Z,3.37
2022-11-21T12:58:37.041Z,2.67
2022-11-21T13:01:42.295Z,3.10
2022-11-21T13:04:17.481Z,3.40
2022-11-21T13:06:48.214Z,4.60
2022-11-21T13:09:20.544Z,8.33
2022-11-21T13:12:28.461Z,8.73
2022-11-21T13:15:19.423Z,10.07
2022-11-21T13:18:07.490Z,11.13
2022-11-21T13:20:39.869Z,10.93
2022-11-21T13:23:40.556Z,7.30
2022-11-21T13:26:56.868Z,7.77
2022-11-21T13:29:24.286Z,5.03
2022-11-21T13:31:51.712Z,3.97
2022-11-21T13:34:45.254Z,5.40
2022-11-21T13:37:50.723Z,3.63
2022-11-21T13:40:26.946Z,3.13
2022-11-21T13:43:33.254Z,3.70
2022-11-21T13:46:01.897Z,5.23
2022-11-21T13:48:34.681Z,5.33
2022-11-21T13:51:13.817Z,4.13
2022-11-21T13:54:18.541Z,3.33
2022-11-21T13:57:20.623Z,3.17
2022-11-21T14:00:19.546Z,4.20
2022-11-21T14:03:38.369Z,4.10
2022-11-21T14:06:19.599Z,4.23
2022-11-21T14:09:20.461Z,4.13
2022-11-21T14:11:54.680Z,4.77
2022-11-21T14:14:42.736Z,3.67
2022-11-21T14:17:22.666Z,3.90
2022-11-21T14:19:52.398Z,4.27
2022-11-21T14:22:38.752Z,3.93
2022-11-21T14:25:18.324Z,4.63
2022-11-21T14:27:49.948Z,5.37
2022-11-21T14:30:31.574Z,3.13
2022-11-21T14:33:39.193Z,4.00
2022-11-21T14:36:13.102Z,3.60
2022-11-21T14:38:50.949Z,4.10
2022-11-21T14:41:28.280Z,3.17
2022-11-21T14:43:58.433Z,3.13
2022-11-21T14:46:26.591Z,5.07
2022-11-21T14:48:54.168Z,3.50
2022-11-21T14:51:24.235Z,4.03
2022-11-21T14:53:55.651Z,3.73
2022-11-21T14:56:28.733Z,3.77
2022-11-21T14:59:01.199Z,3.90
2022-11-21T15:01:30.995Z,4.13
2022-11-21T15:04:09.652Z,5.23
2022-11-21T15:06:47.025Z,8.60
2022-11-21T15:10:26.017Z,9.60
2022-11-21T15:12:09.700Z,15.77
2022-11-21T15:15:12.404Z,7.80
2022-11-21T15:18:03.459Z,8.27
2022-11-21T15:20:29.404Z,6.63
2022-11-21T15:23:01.509Z,7.23
2022-11-21T15:25:31.655Z,7.50
2022-11-21T15:28:02.473Z,6.83
2022-11-21T15:30:34.755Z,6.33
2022-11-21T15:33:08.018Z,5.33
2022-11-21T15:35:43.198Z,4.10
2022-11-21T15:38:25.708Z,5.37
2022-11-21T15:41:01.596Z,4.50
2022-11-21T15:43:55.072Z,6.77
2022-11-21T15:46:31.852Z,7.00
2022-11-21T15:49:25.154Z,5.77
2022-11-21T15:52:06.593Z,4.67
2022-11-21T15:54:38.763Z,5.77
2022-11-21T15:57:06.091Z,5.20
2022-11-21T15:59:33.490Z,5.80
2022-11-21T16:02:01.219Z,3.63
2022-11-21T16:04:28.903Z,5.73
2022-11-21T16:06:56.447Z,6.50
2022-11-21T16:09:23.802Z,7.07
2022-11-21T16:11:51.229Z,7.27
2022-11-21T16:14:18.767Z,7.87
2022-11-21T16:16:47.738Z,5.70
2022-11-21T16:19:15.847Z,7.10
2022-11-21T16:21:44.824Z,5.97
2022-11-21T16:24:13.034Z,7.83
2022-11-21T16:26:42.913Z,7.13
2022-11-21T16:29:11.406Z,10.17
2022-11-21T16:31:41.494Z,15.43
2022-11-21T16:34:09.216Z,16.87
2022-11-21T16:36:36.856Z,15.63
2022-11-21T16:39:10.095Z,12.10
2022-11-21T16:41:41.295Z,15.10
2022-11-21T16:44:14.883Z,19.83
2022-11-21T16:46:47.011Z,24.83
2022-11-21T16:49:16.240Z,27.07
2022-11-21T16:51:46.248Z,23.83
2022-11-21T16:54:15.938Z,19.10
2022-11-21T16:56:45.041Z,16.53
2022-11-21T16:59:12.968Z,18.03
2022-11-21T17:01:44.046Z,14.77
2022-11-21T17:04:17.247Z,13.27
2022-11-21T17:06:48.970Z,11.90
2022-11-21T17:09:18.436Z,21.00
2022-11-21T17:11:46.594Z,19.90
2022-11-21T17:14:16.128Z,15.03
2022-11-21T17:16:46.159Z,16.97
2022-11-21T17:19:19.256Z,28.90
2022-11-21T17:21:49.449Z,21.03
2022-11-21T17:24:18.463Z,17.13
2022-11-21T17:26:47.772Z,14.10
2022-11-21T17:29:18.773Z,13.07
2022-11-21T17:31:47.085Z,15.20
2022-11-21T17:34:16.796Z,15.30
2022-11-21T17:36:44.714Z,16.47
2022-11-21T17:39:18.329Z,17.77
2022-11-21T17:41:47.686Z,18.83
2022-11-21T17:44:16.881Z,22.60
2022-11-21T17:46:47.046Z,24.67
2022-11-21T17:49:16.128Z,28.33
2022-11-21T17:51:46.071Z,24.80
2022-11-21T17:54:14.342Z,15.70
2022-11-21T17:56:46.630Z,13.13
2022-11-21T17:59:18.609Z,8.60
2022-11-21T18:01:47.955Z,8.23
2022-11-21T18:04:18.288Z,11.33
2022-11-21T18:06:47.569Z,9.40
2022-11-21T18:09:17.310Z,11.27
2022-11-21T18:11:46.227Z,9.37
2022-11-21T18:14:15.195Z,11.03
2022-11-21T18:16:50.886Z,11.30
2022-11-21T18:19:21.736Z,8.33
2022-11-21T18:21:50.149Z,8.50
2022-11-21T18:24:20.532Z,6.97
2022-11-21T18:26:50.360Z,5.20
2022-11-21T18:29:35.750Z,5.27
2022-11-21T18:32:08.879Z,6.60
2022-11-21T18:34:39.660Z,4.97
2022-11-21T18:37:08.901Z,6.83
2022-11-21T18:39:37.807Z,7.67
2022-11-21T18:42:07.509Z,6.63
2022-11-21T18:44:37.238Z,11.23
2022-11-21T18:47:19.722Z,12.90
2022-11-21T18:49:49.053Z,12.80
2022-11-21T18:52:17.476Z,11.07
2022-11-21T18:54:47.105Z,10.73
2022-11-21T18:57:15.664Z,11.77
2022-11-21T18:59:44.028Z,10.47
2022-11-21T19:02:12.683Z,9.47
2022-11-21T19:04:42.305Z,11.20
2022-11-21T19:07:10.592Z,12.40
2022-11-21T19:09:39.445Z,12.40
2022-11-21T19:12:09.328Z,11.13
2022-11-21T19:14:38.571Z,12.40
2022-11-21T19:17:08.522Z,10.63
2022-11-21T19:19:37.917Z,10.00
2022-11-21T19:22:06.723Z,11.30
2022-11-21T19:24:37.965Z,11.33
2022-11-21T19:27:10.852Z,12.83
2022-11-21T19:29:39.950Z,13.87
2022-11-21T19:32:08.512Z,10.93
2022-11-21T19:34:40.868Z,14.07
2022-11-21T19:37:10.491Z,14.40
2022-11-21T19:39:44.358Z,13.63
2022-11-21T19:42:12.553Z,12.00
2022-11-21T19:44:41.671Z,13.03
2022-11-21T19:47:12.308Z,12.93
2022-11-21T19:49:41.788Z,14.57
2022-11-21T19:52:10.912Z,16.20
2022-11-21T19:54:53.976Z,15.40
2022-11-21T19:57:22.735Z,16.10
2022-11-21T19:59:52.267Z,16.70
2022-11-21T20:02:27.186Z,15.63
2022-11-21T20:04:57.033Z,18.13
2022-11-21T20:07:25.635Z,14.67
2022-11-21T20:09:54.448Z,14.20
2022-11-21T20:12:22.394Z,19.23
2022-11-21T20:14:54.157Z,29.17
2022-11-21T20:17:22.609Z,29.53
2022-11-21T20:19:52.939Z,23.17
2022-11-21T20:22:21.450Z,15.00
2022-11-21T20:24:51.932Z,18.37
2022-11-21T20:27:20.241Z,16.07
2022-11-21T20:29:48.579Z,13.87
2022-11-21T20:32:17.004Z,14.43
2022-11-21T20:34:44.911Z,19.23
2022-11-21T20:37:15.768Z,17.80
2022-11-21T20:39:53.758Z,20.00
2022-11-21T20:42:23.368Z,20.20
2022-11-21T20:47:41.759Z,24.00
2022-11-21T20:50:11.066Z,19.93
2022-11-21T20:53:50.401Z,18.07
2022-11-21T20:55:34.892Z,16.43
2022-11-21T20:58:03.122Z,17.17
2022-11-21T21:00:31.728Z,16.20
2022-11-21T21:02:59.788Z,14.57
2022-11-21T21:05:27.956Z,14.67
2022-11-21T21:07:55.771Z,14.43
2022-11-21T21:10:25.415Z,14.27
2022-11-21T21:12:53.213Z,13.40
2022-11-21T21:15:20.816Z,12.77
2022-11-21T21:17:48.563Z,14.50
2022-11-21T21:20:16.585Z,16.10
2022-11-21T21:22:44.300Z,15.30
2022-11-21T21:25:12.144Z,14.43
2022-11-21T21:27:40.993Z,14.43
2022-11-21T21:30:12.269Z,15.03
2022-11-21T21:32:42.295Z,20.07
2022-11-21T21:35:10.506Z,22.30
2022-11-21T21:37:38.374Z,27.17
2022-11-21T21:40:06.913Z,27.23
2022-11-21T21:42:34.564Z,23.23
2022-11-21T21:45:02.686Z,22.70
2022-11-21T21:47:30.072Z,22.33
2022-11-21T21:49:57.520Z,22.60
2022-11-21T21:52:24.938Z,23.50
2022-11-21T21:54:52.269Z,26.13
2022-11-21T21:57:19.668Z,25.80
2022-11-21T21:59:48.364Z,25.07
2022-11-21T22:02:15.827Z,28.43
2022-11-21T22:04:45.910Z,27.40
2022-11-21T22:07:17.838Z,27.43
2022-11-21T22:09:46.289Z,28.43
2022-11-21T22:12:13.699Z,29.87
2022-11-21T22:14:41.066Z,27.00
2022-11-21T22:17:08.871Z,26.67
2022-11-21T22:19:36.199Z,27.53
2022-11-21T22:22:04.837Z,28.77
2022-11-21T22:24:32.167Z,26.90
2022-11-21T22:26:59.608Z,27.33
2022-11-21T22:29:27.555Z,25.20
2022-11-21T22:31:56.100Z,26.43
2022-11-21T22:34:23.658Z,23.67
2022-11-21T22:36:51.012Z,28.03
2022-11-21T22:39:18.904Z,25.63
2022-11-21T22:41:46.334Z,24.30
2022-11-21T22:44:13.762Z,24.23
2022-11-21T22:46:46.911Z,25.03
2022-11-21T22:49:14.494Z,22.43
2022-11-21T22:51:51.514Z,23.37
2022-11-21T22:54:18.907Z,23.90
2022-11-21T22:56:46.344Z,23.93
2022-11-21T22:59:14.040Z,24.70
2022-11-21T23:01:41.398Z,44.77
2022-11-21T23:04:11.195Z,54.30
2022-11-21T23:06:45.305Z,49.77
2022-11-21T23:09:15.297Z,35.13
2022-11-21T23:11:42.716Z,64.93
2022-11-21T23:14:10.247Z,133.13
2022-11-21T23:16:39.850Z,113.40
2022-11-21T23:19:07.274Z,53.40
2022-11-21T23:21:34.729Z,95.93
2022-11-21T23:24:02.264Z,139.57
2022-11-21T23:26:29.848Z,75.13
2022-11-21T23:28:57.211Z,94.83
2022-11-21T23:31:24.839Z,61.27
2022-11-21T23:33:52.324Z,54.70
2022-11-21T23:36:19.682Z,44.30
2022-11-21T23:38:47.045Z,81.93
2022-11-21T23:41:14.384Z,70.57
2022-11-21T23:43:41.716Z,57.50
2022-11-21T23:46:09.125Z,50.07
2022-11-21T23:48:36.592Z,44.77
2022-11-21T23:51:04.006Z,72.17
2022-11-21T23:53:33.935Z,79.87
2022-11-21T23:56:01.320Z,72.87
2022-11-21T23:58:28.958Z,71.80
